Burton, Texas
Current Conditions -  °F | °C
As of 2:15 PM on Monday 24 Nov 2014 (Local Time) from K11R Reporting Station
Clear Clear  
Wind Chill: 64°   Ceiling: Unl
Heat Index: 64°   Visibility: 10mi
Dew Point: 33°   Wind: 12mph
Humidity: 31%   Direction: 340°NNW
Pressure: 30.05"   Gusts: NA
Location:  30.18°N, 96.6°W
Report Text: K11R 242015Z AUTO 34010KT 10SM CLR 18/00 A3005 RMK AO2 T01770003
Loading
Personal Weather Stations






























Interactive Weather Map New forecast layout! Learn more

10-Day Weather Forecast

Advertisements
Track Severe Weather on mobile